createdAt,value
2018-01-11T00:23:32.341Z,41.60
2018-01-11T00:25:59.843Z,47.78
2018-01-11T00:28:27.345Z,31.52
2018-01-11T00:30:55.627Z,38.53
2018-01-11T00:33:23.126Z,44.92
2018-01-11T00:35:50.664Z,35.95
2018-01-11T00:38:18.171Z,44.08
2018-01-11T00:40:45.707Z,28.90
2018-01-11T00:43:13.216Z,33.38
2018-01-11T00:45:41.483Z,38.30
2018-01-11T00:48:09.761Z,41.75
2018-01-11T00:50:38.079Z,42.13
2018-01-11T00:53:05.630Z,37.45
2018-01-11T00:55:33.136Z,42.70
2018-01-11T00:58:00.645Z,36.80
2018-01-11T01:00:28.249Z,42.17
2018-01-11T01:02:55.725Z,51.25
2018-01-11T01:05:23.999Z,42.60
2018-01-11T01:07:51.510Z,44.63
2018-01-11T01:10:19.023Z,37.10
2018-01-11T01:12:47.322Z,36.58
2018-01-11T01:15:14.840Z,37.42
2018-01-11T01:17:42.468Z,40.03
2018-01-11T01:20:09.976Z,49.28
2018-01-11T01:22:38.255Z,39.60
2018-01-11T01:25:06.528Z,45.83
2018-01-11T01:27:34.793Z,43.67
2018-01-11T01:30:03.096Z,53.17
2018-01-11T01:32:30.597Z,59.25
2018-01-11T01:34:58.107Z,44.63
2018-01-11T01:37:25.626Z,53.78
2018-01-11T01:39:53.121Z,47.33
2018-01-11T01:42:20.629Z,42.35
2018-01-11T01:44:48.125Z,38.20
2018-01-11T01:47:16.453Z,50.83
2018-01-11T01:49:43.996Z,41.83
2018-01-11T01:52:11.494Z,50.63
2018-01-11T01:54:39.032Z,57.03
2018-01-11T01:57:06.599Z,41.33
2018-01-11T01:59:34.107Z,36.08
2018-01-11T02:02:01.622Z,39.13
2018-01-11T02:04:29.142Z,40.58
2018-01-11T02:06:56.637Z,48.20
2018-01-11T02:09:24.149Z,68.37
2018-01-11T02:11:51.714Z,73.87
2018-01-11T02:14:19.263Z,54.43
2018-01-11T02:16:46.771Z,48.30
2018-01-11T02:19:14.290Z,60.55
2018-01-11T02:21:41.808Z,49.67
2018-01-11T02:24:09.343Z,55.80
2018-01-11T02:26:36.860Z,41.55
2018-01-11T02:29:04.391Z,51.05
2018-01-11T02:31:32.652Z,58.90
2018-01-11T02:34:00.175Z,52.65
2018-01-11T02:36:27.692Z,55.58
2018-01-11T02:38:55.987Z,50.55
2018-01-11T02:41:23.505Z,51.75
2018-01-11T02:43:51.022Z,44.00
2018-01-11T02:46:18.536Z,39.35
2018-01-11T02:48:46.042Z,45.50
2018-01-11T02:51:13.568Z,46.22
2018-01-11T02:53:41.091Z,45.17
2018-01-11T02:56:08.594Z,49.30
2018-01-11T02:58:36.118Z,50.65
2018-01-11T03:01:04.394Z,46.22
2018-01-11T03:03:31.933Z,43.80
2018-01-11T03:05:59.454Z,48.87
2018-01-11T03:08:26.988Z,47.13
2018-01-11T03:10:55.268Z,43.35
2018-01-11T03:13:23.562Z,47.60
2018-01-11T03:15:51.118Z,41.88
2018-01-11T03:18:18.652Z,46.97
2018-01-11T03:20:46.927Z,45.30
2018-01-11T03:23:15.209Z,37.63
2018-01-11T03:25:43.496Z,42.73
2018-01-11T03:28:11.010Z,44.83
2018-01-11T03:30:38.541Z,53.72
2018-01-11T03:33:06.062Z,52.40
2018-01-11T03:35:34.343Z,45.65
2018-01-11T03:38:02.617Z,42.13
2018-01-11T03:40:30.903Z,41.88
2018-01-11T03:42:58.412Z,50.35
2018-01-11T03:45:25.905Z,36.20
2018-01-11T03:47:54.223Z,38.65
2018-01-11T03:50:21.722Z,38.67
2018-01-11T03:52:49.253Z,35.67
2018-01-11T03:55:16.767Z,39.00
2018-01-11T03:57:44.289Z,31.80
2018-01-11T04:00:11.922Z,32.50
2018-01-11T04:02:39.444Z,34.08
2018-01-11T04:05:06.970Z,36.33
2018-01-11T04:07:34.488Z,34.92
2018-01-11T04:10:02.006Z,39.22
2018-01-11T04:12:30.292Z,39.58
2018-01-11T04:14:57.912Z,40.10
2018-01-11T04:17:25.413Z,32.58
2018-01-11T04:19:52.943Z,37.30
2018-01-11T04:22:20.451Z,42.60
2018-01-11T04:24:47.973Z,47.53
2018-01-11T04:27:16.256Z,43.17
2018-01-11T04:29:44.544Z,44.55
2018-01-11T04:32:12.050Z,52.50
2018-01-11T04:34:39.588Z,49.10
2018-01-11T04:37:07.098Z,41.88
2018-01-11T04:39:35.391Z,50.20
2018-01-11T04:42:02.896Z,50.10
2018-01-11T04:44:30.411Z,41.65
2018-01-11T04:46:57.910Z,39.60
2018-01-11T04:49:25.439Z,37.20
2018-01-11T04:51:52.993Z,42.53
2018-01-11T04:54:20.523Z,34.10
2018-01-11T04:56:48.797Z,34.88
2018-01-11T04:59:16.327Z,39.30
2018-01-11T05:01:43.839Z,38.30
2018-01-11T05:04:11.362Z,31.02
2018-01-11T05:06:38.882Z,37.22
2018-01-11T05:09:06.389Z,34.97
2018-01-11T05:11:35.408Z,41.60
2018-01-11T05:14:02.931Z,40.40
2018-01-11T05:16:30.452Z,42.42
2018-01-11T05:18:57.981Z,54.92
2018-01-11T05:21:26.257Z,44.90
2018-01-11T05:23:54.553Z,42.70
2018-01-11T05:26:22.076Z,36.13
2018-01-11T05:28:50.358Z,44.80
2018-01-11T05:31:18.648Z,40.78
2018-01-11T05:33:46.184Z,35.25
2018-01-11T05:36:14.450Z,36.47
2018-01-11T05:38:41.975Z,43.30
2018-01-11T05:41:09.482Z,35.95
2018-01-11T05:43:37.756Z,36.73
2018-01-11T05:46:06.040Z,45.07
2018-01-11T05:48:34.317Z,45.47
2018-01-11T05:51:02.595Z,38.55
2018-01-11T05:53:30.873Z,39.50
2018-01-11T05:55:58.383Z,49.63
2018-01-11T05:58:25.901Z,47.35
2018-01-11T06:00:53.571Z,47.35
2018-01-11T06:03:21.085Z,55.72
2018-01-11T06:05:49.359Z,35.60
2018-01-11T06:08:16.889Z,44.33
2018-01-11T06:10:44.408Z,52.95
2018-01-11T06:13:11.926Z,43.20
2018-01-11T06:15:39.435Z,58.13
2018-01-11T06:18:06.993Z,67.45
2018-01-11T06:20:34.508Z,51.30
2018-01-11T06:23:02.038Z,45.20
2018-01-11T06:25:29.529Z,44.05
2018-01-11T06:27:57.131Z,35.17
2018-01-11T06:30:24.634Z,40.03
2018-01-11T06:32:52.164Z,33.00
2018-01-11T06:35:19.675Z,41.67
2018-01-11T06:37:47.975Z,44.67
2018-01-11T06:40:15.521Z,51.17
2018-01-11T06:42:43.779Z,45.38
2018-01-11T06:45:11.307Z,39.45
2018-01-11T06:47:38.800Z,45.60
2018-01-11T06:50:07.082Z,38.28
2018-01-11T06:52:35.355Z,36.85
2018-01-11T06:55:03.661Z,40.72
2018-01-11T06:57:31.171Z,39.63
2018-01-11T06:59:58.703Z,51.13
2018-01-11T07:02:26.196Z,49.13
2018-01-11T07:04:53.732Z,39.42
2018-01-11T07:07:21.239Z,37.17
2018-01-11T07:09:48.763Z,35.38
2018-01-11T07:12:16.261Z,28.15
2018-01-11T07:14:43.776Z,32.43
2018-01-11T07:17:11.283Z,29.67
2018-01-11T07:19:38.822Z,33.33
2018-01-11T07:22:06.338Z,39.22
2018-01-11T07:24:33.845Z,28.67
2018-01-11T07:27:01.427Z,29.83
2018-01-11T07:29:28.937Z,29.17
2018-01-11T07:31:57.201Z,39.55
2018-01-11T07:34:24.727Z,28.00
2018-01-11T07:36:52.230Z,29.35
2018-01-11T07:39:19.758Z,30.20
2018-01-11T07:41:47.276Z,33.87
2018-01-11T07:44:14.789Z,32.72
2018-01-11T07:46:42.289Z,34.70
2018-01-11T07:49:09.820Z,44.17
2018-01-11T07:51:37.336Z,46.85
2018-01-11T07:54:04.862Z,33.13
2018-01-11T07:56:32.361Z,39.95
2018-01-11T07:58:59.892Z,38.72
2018-01-11T08:01:27.398Z,35.30
2018-01-11T08:03:54.901Z,35.13
2018-01-11T08:06:22.415Z,27.52
2018-01-11T08:08:49.947Z,27.43
2018-01-11T08:11:17.482Z,29.58
2018-01-11T08:13:44.993Z,41.45
2018-01-11T08:16:12.503Z,38.17
2018-01-11T08:18:40.046Z,39.08
2018-01-11T08:21:07.630Z,39.92
2018-01-11T08:23:35.177Z,49.08
2018-01-11T08:26:02.692Z,42.22
2018-01-11T08:28:30.215Z,45.92
2018-01-11T08:30:57.703Z,48.92
2018-01-11T08:33:25.206Z,36.67
2018-01-11T08:35:52.728Z,38.00
2018-01-11T08:38:20.241Z,42.30
2018-01-11T08:40:47.750Z,36.08
2018-01-11T08:43:16.043Z,35.03
2018-01-11T08:45:44.302Z,30.63
2018-01-11T08:48:12.594Z,35.15
2018-01-11T08:50:40.095Z,41.37
2018-01-11T08:53:07.614Z,35.97
2018-01-11T08:55:35.178Z,35.42
2018-01-11T08:58:02.706Z,41.88
2018-01-11T09:00:30.224Z,38.10
2018-01-11T09:02:57.747Z,44.42
2018-01-11T09:05:25.313Z,53.65
2018-01-11T09:07:52.825Z,53.80
2018-01-11T09:10:20.326Z,74.77
2018-01-11T09:12:47.830Z,43.80
2018-01-11T09:15:15.359Z,34.65
2018-01-11T09:17:42.860Z,37.15
2018-01-11T09:20:10.370Z,43.38
2018-01-11T09:22:37.878Z,39.08
2018-01-11T09:25:05.399Z,32.92
2018-01-11T09:27:32.896Z,43.30
2018-01-11T09:30:00.406Z,43.30
2018-01-11T09:32:27.905Z,30.25
2018-01-11T09:34:55.433Z,26.02
2018-01-11T09:37:22.937Z,28.55
2018-01-11T09:39:50.548Z,26.40
2018-01-11T09:42:18.068Z,31.12
2018-01-11T09:44:46.380Z,33.58
2018-01-11T09:47:13.896Z,35.47
2018-01-11T09:49:41.421Z,36.73
2018-01-11T09:52:08.918Z,31.97
2018-01-11T09:54:37.215Z,31.17
2018-01-11T09:57:04.732Z,31.85
2018-01-11T09:59:32.241Z,33.43
2018-01-11T10:01:59.752Z,32.90
2018-01-11T10:04:27.283Z,47.60
2018-01-11T10:06:54.778Z,47.92
2018-01-11T10:09:23.053Z,65.07
2018-01-11T10:11:50.660Z,41.40
2018-01-11T10:14:18.188Z,39.42
2018-01-11T10:16:46.486Z,43.97
2018-01-11T10:19:14.043Z,42.58
2018-01-11T10:21:41.546Z,45.67
2018-01-11T10:24:09.072Z,42.28
2018-01-11T10:26:36.628Z,42.28
2018-01-11T10:29:04.169Z,42.30
2018-01-11T10:31:31.696Z,51.40
2018-01-11T10:33:59.209Z,41.33
2018-01-11T10:36:26.759Z,45.95
2018-01-11T10:38:54.286Z,44.08
2018-01-11T10:41:22.567Z,40.13
2018-01-11T10:43:50.869Z,34.42
2018-01-11T10:46:18.386Z,34.90
2018-01-11T10:48:45.912Z,46.23
2018-01-11T10:51:13.417Z,42.13
2018-01-11T10:53:41.719Z,81.17
2018-01-11T10:56:09.235Z,47.43
2018-01-11T10:58:36.772Z,43.28
2018-01-11T11:01:10.865Z,33.42
2018-01-11T11:03:38.396Z,39.40
2018-01-11T11:06:05.921Z,40.45
2018-01-11T11:08:33.536Z,36.22
2018-01-11T11:11:01.087Z,36.80
2018-01-11T11:13:28.604Z,52.10
2018-01-11T11:15:56.918Z,33.17
2018-01-11T11:18:24.464Z,31.67
2018-01-11T11:20:52.030Z,32.90
2018-01-11T11:23:19.581Z,34.67
2018-01-11T11:25:47.146Z,33.63
2018-01-11T11:28:14.665Z,32.45
2018-01-11T11:30:42.275Z,28.70
2018-01-11T11:33:09.800Z,39.10
2018-01-11T11:35:39.031Z,36.63
2018-01-11T11:38:06.586Z,41.53
2018-01-11T11:40:34.100Z,32.95
2018-01-11T11:43:01.618Z,42.88
2018-01-11T11:45:29.118Z,32.90
2018-01-11T11:47:56.769Z,33.50
2018-01-11T11:50:24.266Z,36.93
2018-01-11T11:52:52.540Z,34.50
2018-01-11T11:55:20.821Z,36.67
2018-01-11T11:57:48.336Z,35.40
2018-01-11T12:00:15.864Z,37.47
2018-01-11T12:02:43.368Z,32.07
2018-01-11T12:05:10.976Z,33.15
2018-01-11T12:07:38.495Z,30.03
2018-01-11T12:10:06.100Z,32.60
2018-01-11T12:12:33.608Z,37.08
2018-01-11T12:15:01.141Z,31.23
2018-01-11T12:17:28.633Z,33.50
2018-01-11T12:19:56.931Z,36.60
2018-01-11T12:22:24.435Z,34.83
2018-01-11T12:24:51.950Z,38.63
2018-01-11T12:27:19.464Z,30.40
2018-01-11T12:29:47.805Z,27.00
2018-01-11T12:32:15.347Z,35.63
2018-01-11T12:34:42.872Z,33.13
2018-01-11T12:37:10.393Z,40.27
2018-01-11T12:39:38.017Z,34.08
2018-01-11T12:42:05.534Z,41.20
2018-01-11T12:44:33.126Z,36.57
2018-01-11T12:47:01.436Z,37.03
2018-01-11T12:49:28.994Z,37.75
2018-01-11T12:51:56.608Z,38.97
2018-01-11T12:54:24.097Z,40.17
2018-01-11T12:56:51.589Z,40.03
2018-01-11T12:59:19.101Z,42.55
2018-01-11T13:01:46.602Z,41.73
2018-01-11T13:04:14.221Z,42.05
2018-01-11T13:06:41.748Z,37.83
2018-01-11T13:09:09.262Z,41.33
2018-01-11T13:11:36.766Z,38.07
2018-01-11T13:14:04.300Z,37.60
2018-01-11T13:16:31.799Z,33.17
2018-01-11T13:19:00.074Z,35.30
2018-01-11T13:21:28.343Z,33.23
2018-01-11T13:23:55.854Z,35.00
2018-01-11T13:26:23.341Z,33.07
2018-01-11T13:28:51.618Z,37.10
2018-01-11T13:31:19.126Z,35.50
2018-01-11T13:33:46.633Z,38.63
2018-01-11T13:36:14.144Z,37.23
2018-01-11T13:38:41.663Z,37.50
2018-01-11T13:41:09.172Z,39.07
2018-01-11T13:43:36.709Z,42.10
2018-01-11T13:46:04.209Z,38.47
2018-01-11T13:48:31.740Z,38.47
2018-01-11T13:50:59.248Z,35.87
2018-01-11T13:53:26.756Z,36.73
2018-01-11T13:55:54.272Z,38.17
2018-01-11T13:58:22.584Z,40.67
2018-01-11T14:00:50.077Z,41.13
2018-01-11T14:03:17.607Z,36.07
2018-01-11T14:05:45.115Z,40.17
2018-01-11T14:08:12.621Z,42.23
2018-01-11T14:10:40.118Z,36.80
2018-01-11T14:13:07.645Z,38.50
2018-01-11T14:15:35.164Z,39.63
2018-01-11T14:18:03.444Z,48.47
2018-01-11T14:20:31.716Z,76.33
2018-01-11T14:22:59.264Z,42.23
2018-01-11T14:25:26.762Z,42.90
2018-01-11T14:27:54.259Z,51.60
2018-01-11T14:30:21.792Z,63.95
2018-01-11T14:32:49.312Z,53.80
2018-01-11T14:35:17.653Z,39.77
2018-01-11T14:37:45.142Z,42.80
2018-01-11T14:40:13.426Z,52.33
2018-01-11T14:42:41.695Z,44.17
2018-01-11T14:45:09.996Z,60.67
2018-01-11T14:47:37.501Z,51.40
2018-01-11T14:50:05.035Z,58.83
2018-01-11T14:52:32.541Z,53.15
2018-01-11T14:55:00.827Z,62.03
2018-01-11T14:57:29.093Z,49.90
2018-01-11T14:59:57.404Z,57.60
2018-01-11T15:02:24.906Z,60.90
2018-01-11T15:04:52.444Z,60.40
2018-01-11T15:07:19.969Z,53.97
2018-01-11T15:09:47.486Z,58.13
2018-01-11T15:12:15.002Z,61.28
2018-01-11T15:14:42.517Z,54.00
2018-01-11T15:17:10.786Z,61.47
2018-01-11T15:19:38.414Z,63.67
2018-01-11T15:22:05.958Z,64.85
2018-01-11T15:24:33.475Z,59.53
2018-01-11T15:27:01.097Z,52.60
2018-01-11T15:29:28.613Z,49.78
2018-01-11T15:31:56.896Z,57.08
2018-01-11T15:34:24.476Z,49.58
2018-01-11T15:36:52.006Z,57.30
2018-01-11T15:39:19.547Z,61.87
2018-01-11T15:41:48.547Z,67.78
2018-01-11T15:44:16.895Z,114.72
2018-01-11T15:46:45.910Z,67.87
2018-01-11T15:49:13.440Z,61.45
2018-01-11T15:51:40.955Z,56.85
2018-01-11T15:54:09.225Z,56.53
2018-01-11T15:56:36.745Z,71.45
2018-01-11T15:59:04.279Z,60.60
2018-01-11T16:01:31.787Z,62.87
2018-01-11T16:04:00.092Z,60.85
2018-01-11T16:06:27.604Z,62.73
2018-01-11T16:08:55.137Z,60.93
2018-01-11T16:11:22.661Z,68.97
2018-01-11T16:13:50.177Z,63.72
2018-01-11T16:16:17.674Z,75.37
2018-01-11T16:18:45.190Z,68.73
2018-01-11T16:21:12.706Z,73.65
2018-01-11T16:23:40.231Z,73.43
2018-01-11T16:26:08.529Z,72.20
2018-01-11T16:28:36.033Z,71.20
2018-01-11T16:31:03.571Z,69.60
2018-01-11T16:33:31.081Z,76.70
2018-01-11T16:35:59.350Z,74.62
2018-01-11T16:38:27.646Z,67.65
2018-01-11T16:40:55.931Z,59.33
2018-01-11T16:43:23.464Z,77.73
2018-01-11T16:45:51.748Z,90.35
2018-01-11T16:48:20.026Z,72.60
2018-01-11T16:50:48.302Z,69.65
2018-01-11T16:53:16.586Z,68.68
2018-01-11T16:55:44.840Z,68.37
2018-01-11T16:58:12.385Z,68.37
2018-01-11T17:00:39.887Z,72.67
2018-01-11T17:03:07.466Z,75.25
2018-01-11T17:05:34.981Z,63.58
2018-01-11T17:08:03.277Z,75.13
2018-01-11T17:10:30.811Z,68.82
2018-01-11T17:12:58.322Z,88.78
2018-01-11T17:15:25.838Z,84.03
2018-01-11T17:17:54.124Z,73.87
2018-01-11T17:20:21.651Z,71.17
2018-01-11T17:22:49.167Z,76.80
2018-01-11T17:25:16.690Z,89.57
2018-01-11T17:27:44.960Z,70.68
2018-01-11T17:30:13.251Z,81.40
2018-01-11T17:32:41.556Z,76.95
2018-01-11T17:35:09.050Z,67.60
2018-01-11T17:37:36.549Z,69.97
2018-01-11T17:40:04.069Z,77.90
2018-01-11T17:42:31.674Z,65.10
2018-01-11T17:44:59.194Z,74.10
2018-01-11T17:47:26.715Z,78.60
2018-01-11T17:49:54.226Z,117.93
2018-01-11T17:52:22.500Z,62.47
2018-01-11T17:54:50.795Z,59.97
2018-01-11T17:57:18.312Z,62.40
2018-01-11T17:59:45.826Z,58.45
2018-01-11T18:02:13.338Z,67.97
2018-01-11T18:04:40.853Z,64.60
2018-01-11T18:07:08.372Z,63.87
2018-01-11T18:09:36.680Z,71.35
2018-01-11T18:12:04.197Z,70.00
2018-01-11T18:14:32.492Z,72.93
2018-01-11T18:17:00.754Z,62.40
2018-01-11T18:19:28.289Z,62.10
2018-01-11T18:21:55.794Z,55.00
2018-01-11T18:24:23.313Z,62.50
2018-01-11T18:26:50.845Z,60.05
2018-01-11T18:29:18.380Z,46.67
2018-01-11T18:31:45.886Z,64.87
2018-01-11T18:34:13.404Z,56.35
2018-01-11T18:36:40.908Z,46.00
2018-01-11T18:39:08.413Z,47.60
2018-01-11T18:41:35.923Z,58.13
2018-01-11T18:44:03.447Z,55.23
2018-01-11T18:46:30.956Z,58.92
2018-01-11T18:48:58.475Z,49.43
2018-01-11T18:51:25.986Z,51.03
2018-01-11T18:53:53.502Z,49.90
2018-01-11T18:56:21.010Z,57.27
2018-01-11T18:58:48.544Z,46.72
2018-01-11T19:01:16.832Z,46.75
2018-01-11T19:03:45.131Z,45.28
2018-01-11T19:06:12.630Z,55.47
2018-01-11T19:08:40.206Z,49.63
2018-01-11T19:11:07.691Z,43.10
2018-01-11T19:13:35.221Z,46.25
2018-01-11T19:16:02.734Z,46.30
2018-01-11T19:18:30.261Z,45.43
2018-01-11T19:20:57.766Z,52.95
2018-01-11T19:23:25.286Z,49.40
2018-01-11T19:25:52.794Z,58.53
2018-01-11T19:28:20.359Z,53.78
2018-01-11T19:30:47.855Z,47.78
2018-01-11T19:33:15.392Z,46.88
2018-01-11T19:35:43.658Z,57.13
2018-01-11T19:38:11.166Z,55.08
2018-01-11T19:40:38.675Z,56.35
2018-01-11T19:43:06.293Z,60.50
2018-01-11T19:45:33.807Z,47.63
2018-01-11T19:48:02.070Z,60.30
2018-01-11T19:50:29.577Z,65.83
2018-01-11T19:52:57.087Z,63.67
2018-01-11T19:55:26.124Z,62.25
2018-01-11T19:57:53.625Z,58.90
2018-01-11T20:00:21.160Z,57.05
2018-01-11T20:02:48.676Z,55.80
2018-01-11T20:05:16.958Z,58.13
2018-01-11T20:07:45.235Z,68.47
2018-01-11T20:10:13.515Z,66.55
2018-01-11T20:12:41.032Z,66.03
2018-01-11T20:15:08.551Z,60.95
2018-01-11T20:17:36.070Z,59.53
2018-01-11T20:20:04.350Z,59.15
2018-01-11T20:22:32.629Z,55.25
2018-01-11T20:25:00.923Z,56.50
2018-01-11T20:27:28.423Z,54.58
2018-01-11T20:29:55.939Z,50.40
2018-01-11T20:32:23.460Z,54.58
2018-01-11T20:34:51.037Z,48.97
2018-01-11T20:37:18.569Z,55.40
2018-01-11T20:39:46.042Z,55.30
2018-01-11T20:42:13.547Z,47.17
2018-01-11T20:44:41.080Z,54.65
2018-01-11T20:47:09.360Z,54.42
2018-01-11T20:49:36.915Z,48.25
2018-01-11T20:52:05.196Z,51.58
2018-01-11T20:54:32.726Z,49.38
2018-01-11T20:57:00.240Z,43.53
2018-01-11T20:59:27.751Z,44.17
2018-01-11T21:01:56.031Z,41.35
2018-01-11T21:04:24.324Z,43.75
2018-01-11T21:06:51.817Z,42.08
2018-01-11T21:09:19.330Z,43.37
2018-01-11T21:11:47.606Z,41.03
2018-01-11T21:14:15.908Z,51.70
2018-01-11T21:16:43.424Z,49.65
2018-01-11T21:19:11.718Z,46.10
2018-01-11T21:21:40.005Z,42.73
2018-01-11T21:24:07.518Z,47.10
2018-01-11T21:26:35.046Z,45.03
2018-01-11T21:29:02.569Z,40.58
2018-01-11T21:31:30.093Z,45.47
2018-01-11T21:33:57.609Z,42.28
2018-01-11T21:36:25.128Z,42.55
2018-01-11T21:38:53.429Z,39.92
2018-01-11T21:41:21.013Z,51.53
2018-01-11T21:43:48.548Z,44.85
2018-01-11T21:46:16.053Z,46.17
2018-01-11T21:48:43.584Z,63.72
2018-01-11T21:51:11.090Z,57.08
2018-01-11T21:53:38.621Z,50.78
2018-01-11T21:56:06.122Z,49.33
2018-01-11T21:58:34.393Z,52.22
2018-01-11T22:01:02.669Z,51.37
2018-01-11T22:03:30.181Z,62.55
2018-01-11T22:05:57.681Z,41.30
2018-01-11T22:08:25.189Z,39.30
2018-01-11T22:10:52.706Z,41.40
2018-01-11T22:13:20.986Z,43.28
2018-01-11T22:15:49.263Z,43.22
2018-01-11T22:18:17.551Z,44.80
2018-01-11T22:20:45.077Z,44.72
2018-01-11T22:23:12.606Z,45.05
2018-01-11T22:25:40.105Z,34.63
2018-01-11T22:28:08.385Z,35.55
2018-01-11T22:30:36.668Z,44.42
2018-01-11T22:33:04.952Z,36.25
2018-01-11T22:35:32.476Z,38.05
2018-01-11T22:37:59.977Z,35.97
2018-01-11T22:40:27.498Z,34.17
2018-01-11T22:42:55.001Z,37.05
2018-01-11T22:45:22.518Z,38.22
2018-01-11T22:47:50.028Z,40.45
2018-01-11T22:50:17.544Z,43.90
2018-01-11T22:52:45.824Z,47.42
2018-01-11T22:55:14.116Z,40.58
2018-01-11T22:57:41.614Z,40.17
2018-01-11T23:00:09.135Z,35.35
2018-01-11T23:02:36.634Z,33.22
2018-01-11T23:05:04.151Z,44.92
2018-01-11T23:07:31.664Z,34.65
2018-01-11T23:09:59.169Z,31.45
2018-01-11T23:12:26.696Z,39.17
2018-01-11T23:14:54.210Z,39.97
2018-01-11T23:17:21.716Z,42.15
2018-01-11T23:19:49.244Z,54.00
2018-01-11T23:22:16.729Z,57.70
2018-01-11T23:24:44.244Z,64.30
2018-01-11T23:27:11.753Z,74.62
2018-01-11T23:29:39.276Z,76.68
2018-01-11T23:32:06.770Z,75.50
2018-01-11T23:34:34.292Z,87.70
2018-01-11T23:37:01.796Z,68.47
2018-01-11T23:39:30.070Z,70.97
2018-01-11T23:41:58.344Z,89.00
2018-01-11T23:44:26.631Z,74.30
2018-01-11T23:46:54.140Z,76.72
2018-01-11T23:49:21.670Z,81.35
2018-01-11T23:51:49.162Z,74.12
2018-01-11T23:54:16.677Z,70.95
2018-01-11T23:56:44.169Z,58.28
2018-01-11T23:59:11.701Z,59.15
